LFPG

Charles de Gaulle International Airport

Paris, France
METAR LFPG 171000Z 25013KT 9999 FEW040 05/01 Q1011 NOSIG
Observed Flight Rules
Jan-17 @ 10:00 UTC (45 minutes ago) Visual Flight Rules
Wind Visibility Clouds
250° at 13 knots 10,000+ meters
  • Few at 4,000' AGL
Temperatures Readings
Current 5°C / 41°F
Dewpoint 1°C / 34°F
Humidity 76%
Altimeter 29.85" Hg
Pressure 1011 hPa
Elevation 109
METAR LFPG 171000Z 25013KT 9999 FEW040 05/01 Q1011 NOSIG
Observed Flight Rules
Jan-17 @ 10:00 UTC
(45 minutes ago)
VFR
Wind Visibility
250° at 13 knots 10,000+ meters
Clouds
  • Few at 4,000' AGL
Temperature Dewpoint
5°C / 41°F 1°C / 34°F
Humidity Altimeter Pressure
76% 29.85" Hg 1011 hPa